Palouse, WA

2:22 PM PDT on September 02, 2014 (GMT -0700)
Palouse Cove | Change Station
CLOSE
Current Station
Personal Weather Station
Location: Palouse, WA
Elevation: 2462 ft
Nearby Weather Stations

Elev 2462 ft 46.91 °N, 117.08 °W | Updated 1 minute ago

Clear
Clear
74.1 °F
Feels Like 77 °F
N
8.1
Wind Variable Wind from WSW
Gusts 17.0 mph

Today
High -- | Low -- °F
--% Chance of Precip.
Yesterday
High -- | Low -- °F
Precip. -- in
6:09 AM 7:25 PM
First Quarter, 55% visible
Pressure 29.80 in
Visibility 10.0 miles
Clouds Clear
Heat Index 77 °F
Dew Point 46 °F
Humidity 37%
Rainfall 0.00 in
Snow Depth Not available.
UV 7 out of 12
Pollen 6.90 out of 12
Air Quality Not available.
Flu Activity Not available.
METAR KPUW 022053Z AUTO 24018G25KT 10SM CLR 24/06 A2983 RMK AO2 SLP090 T02440061 56016

More Conditions Fewer Conditions

Pressure 29.80 in
Visibility 10.0 miles
Clouds Clear
Heat Index 77 °F
Dew Point 46 °F
Humidity 37%
Rainfall 0.00 in
Snow Depth Not available.
UV 7 out of 12
Pollen 6.90 out of 12
Air Quality Not available.
Flu Activity Not available.
METAR KPUW 022053Z AUTO 24018G25KT 10SM CLR 24/06 A2983 RMK AO2 SLP090 T02440061 56016

More Conditions Fewer Conditions

10-Day Weather Forecast

Almanac

Astronomy

Sep. 02, 2014 Rise Set
Actual Time 6:09 AM PDT 7:25 PM PDT
Civil Twilight 5:37 AM PDT 7:56 PM PDT
Nautical Twilight 4:59 AM PDT 8:34 PM PDT
Astronomical Twilight 4:19 AM PDT 9:14 PM PDT
Moon 2:24 PM PDT 11:56 PM PDT
Length of Visible Light 14h 19m
Length of Day
13h 16m
Tomorrow will be 3m 15s shorter.
First Quarter, 55% of the Moon is Illuminated
Today
First Quarter
Sep 8
Full
Sep 15
Last Quarter
Sep 24
New
Oct 1
First Quarter

Today's Extremes

State Highs State Lows

Community

WunderPhotos

Upload Photos

1,749,769 photos uploaded!

Nearby

Snow Depth

Station Depth Elevation
Touchet 0 in 5530 ft
Quartz Peak 1 in 4700 ft
Moses Mountain 1 in 5300 ft
Sentinel Butte 0 in 4920 ft
Trough 0 in 5300 ft

Earthquake Activity

City Distance Mag. Time & Date
Mullan, Idaho 70 miles 2.5 1:01 AM PDT
2014-08-31
Minimum magnitude displayed is 2.5.

Coastal Water Temperatures

Place Temperature
No Stations Reporting

Nearby Weather Stations